createdAt,value
2022-10-25T00:02:05.292Z,14.23
2022-10-25T00:12:13.339Z,14.20
2022-10-25T00:17:17.489Z,14.16
2022-10-25T00:22:21.707Z,14.05
2022-10-25T00:27:25.818Z,13.98
2022-10-25T00:32:28.112Z,13.97
2022-10-25T00:37:32.328Z,13.94
2022-10-25T00:42:36.459Z,13.95
2022-10-25T00:47:40.590Z,14.03
2022-10-25T00:52:44.710Z,14.03
2022-10-25T00:57:49.337Z,14.11
2022-10-25T01:02:53.207Z,14.10
2022-10-25T01:07:57.231Z,14.07
2022-10-25T01:13:01.444Z,14.09
2022-10-25T01:18:05.553Z,14.10
2022-10-25T01:23:09.717Z,14.11
2022-10-25T01:28:13.841Z,14.10
2022-10-25T01:33:18.025Z,14.05
2022-10-25T01:38:22.159Z,14.09
2022-10-25T01:43:26.378Z,14.09
2022-10-25T01:48:30.532Z,14.06
2022-10-25T01:53:32.771Z,14.08
2022-10-25T01:58:36.941Z,14.08
2022-10-25T02:03:39.234Z,14.09
2022-10-25T02:08:43.384Z,14.14
2022-10-25T02:13:47.529Z,14.12
2022-10-25T02:18:51.737Z,14.14
2022-10-25T02:23:55.860Z,14.12
2022-10-25T02:28:59.987Z,14.13
2022-10-25T02:34:04.218Z,14.12
2022-10-25T02:39:08.326Z,14.12
2022-10-25T02:49:16.627Z,14.11
2022-10-25T02:54:20.801Z,14.10
2022-10-25T02:59:24.951Z,14.11
2022-10-25T03:04:29.129Z,14.13
2022-10-25T03:09:33.277Z,14.12
2022-10-25T03:14:37.467Z,14.12
2022-10-25T03:19:41.629Z,14.13
2022-10-25T03:24:45.761Z,14.12
2022-10-25T03:29:49.954Z,14.13
2022-10-25T03:34:54.089Z,14.08
2022-10-25T03:40:00.278Z,14.04
2022-10-25T03:45:02.412Z,14.02
2022-10-25T03:50:06.544Z,14.02
2022-10-25T03:55:08.855Z,14.01
2022-10-25T04:00:13.012Z,14.00
2022-10-25T04:05:15.269Z,13.91
2022-10-25T04:10:19.432Z,13.82
2022-10-25T04:15:23.592Z,13.73
2022-10-25T04:20:27.748Z,13.69
2022-10-25T04:25:31.886Z,13.68
2022-10-25T04:30:38.757Z,13.62
2022-10-25T04:35:40.277Z,13.68
2022-10-25T04:40:44.412Z,13.70
2022-10-25T04:45:48.525Z,13.73
2022-10-25T04:50:52.695Z,13.76
2022-10-25T04:55:56.909Z,13.77
2022-10-25T05:01:01.167Z,13.79
2022-10-25T05:06:05.181Z,13.84
2022-10-25T05:11:09.359Z,13.86
2022-10-25T05:16:13.532Z,13.88
2022-10-25T05:21:17.753Z,13.89
2022-10-25T05:26:21.811Z,13.90
2022-10-25T05:31:25.968Z,13.92
2022-10-25T05:36:30.174Z,13.91
2022-10-25T05:41:36.298Z,13.92
2022-10-25T05:46:38.487Z,13.92
2022-10-25T05:51:40.742Z,13.93
2022-10-25T05:56:44.907Z,13.93
2022-10-25T06:01:47.393Z,13.93
2022-10-25T06:06:51.363Z,13.92
2022-10-25T06:11:53.576Z,13.93
2022-10-25T06:16:57.801Z,13.92
2022-10-25T06:22:01.912Z,13.92
2022-10-25T06:27:06.092Z,13.93
2022-10-25T06:32:10.247Z,13.91
2022-10-25T06:37:14.416Z,13.88
2022-10-25T06:42:18.582Z,13.88
2022-10-25T06:47:22.721Z,13.91
2022-10-25T06:52:26.906Z,13.90
2022-10-25T06:57:31.052Z,13.90
2022-10-25T07:02:35.184Z,13.89
2022-10-25T07:07:39.375Z,13.90
2022-10-25T07:12:43.548Z,13.90
2022-10-25T07:17:47.899Z,13.97
2022-10-25T07:22:55.470Z,14.03
2022-10-25T07:27:56.005Z,14.03
2022-10-25T07:33:00.151Z,14.07
2022-10-25T07:38:04.358Z,14.06
2022-10-25T07:43:08.474Z,14.16
2022-10-25T07:48:12.685Z,14.25
2022-10-25T07:53:16.799Z,14.32
2022-10-25T07:58:19.081Z,14.28
2022-10-25T08:03:23.255Z,14.27
2022-10-25T08:08:27.377Z,14.19
2022-10-25T08:13:31.568Z,14.21
2022-10-25T08:18:35.762Z,14.37
2022-10-25T08:23:39.869Z,14.46
2022-10-25T08:28:44.060Z,14.52
2022-10-25T08:33:48.185Z,14.53
2022-10-25T08:38:52.352Z,14.57
2022-10-25T08:43:56.568Z,14.71
2022-10-25T08:49:00.662Z,14.78
2022-10-25T08:54:04.850Z,15.00
2022-10-25T08:59:09.014Z,15.03
2022-10-25T09:04:13.138Z,15.21
2022-10-25T09:09:17.312Z,15.38
2022-10-25T09:14:21.494Z,15.44
2022-10-25T09:19:25.674Z,15.55
2022-10-25T09:24:29.808Z,15.68
2022-10-25T09:29:33.972Z,15.55
2022-10-25T09:34:38.108Z,15.54
2022-10-25T09:39:42.294Z,15.69
2022-10-25T09:44:44.549Z,15.46
2022-10-25T09:49:48.707Z,15.45
2022-10-25T09:54:50.998Z,15.61
2022-10-25T09:59:55.168Z,15.57
2022-10-25T10:04:59.293Z,15.47
2022-10-25T10:10:03.490Z,15.37
2022-10-25T10:15:07.635Z,15.25
2022-10-25T10:20:11.772Z,15.25
2022-10-25T10:25:15.960Z,15.26
2022-10-25T10:30:20.090Z,15.24
2022-10-25T10:35:24.236Z,15.31
2022-10-25T10:45:32.553Z,15.44
2022-10-25T10:50:36.764Z,15.58
2022-10-25T10:55:40.893Z,15.69
2022-10-25T11:00:45.087Z,15.74
2022-10-25T11:10:53.392Z,15.72
2022-10-25T11:15:55.642Z,15.87
2022-10-25T11:21:06.828Z,16.45
2022-10-25T11:26:09.119Z,16.81
2022-10-25T11:31:20.262Z,17.05
2022-10-25T11:36:31.440Z,17.08
2022-10-25T11:41:42.592Z,16.92
2022-10-25T11:46:53.801Z,17.21
2022-10-25T11:52:04.964Z,17.52
2022-10-25T11:57:14.165Z,17.48
2022-10-25T12:02:18.401Z,17.53
2022-10-25T12:07:22.506Z,17.59
2022-10-25T12:12:26.673Z,17.62
2022-10-25T12:17:30.836Z,17.55
2022-10-25T12:22:35.008Z,17.66
2022-10-25T12:27:39.208Z,17.79
2022-10-25T12:32:43.271Z,17.78
2022-10-25T12:37:49.091Z,17.78
2022-10-25T12:42:51.601Z,17.70
2022-10-25T12:47:55.761Z,17.89
2022-10-25T12:52:59.912Z,17.58
2022-10-25T12:58:04.075Z,17.12
2022-10-25T13:03:10.066Z,16.83
2022-10-25T13:08:12.410Z,16.75
2022-10-25T13:13:16.575Z,16.72
2022-10-25T13:18:22.321Z,16.75
2022-10-25T13:23:24.881Z,16.78
2022-10-25T13:28:32.742Z,16.88
2022-10-25T13:33:33.250Z,17.14
2022-10-25T13:38:39.702Z,17.07
2022-10-25T13:43:39.653Z,16.86
2022-10-25T13:48:43.782Z,16.84
2022-10-25T13:53:47.932Z,16.73
2022-10-25T13:58:52.211Z,16.62
2022-10-25T14:03:56.294Z,16.71
2022-10-25T14:09:00.430Z,16.89
2022-10-25T14:14:04.577Z,16.88
2022-10-25T14:19:08.755Z,16.67
2022-10-25T14:24:12.907Z,16.60
2022-10-25T14:29:19.131Z,16.59
2022-10-25T14:34:21.220Z,16.57
2022-10-25T14:39:25.382Z,16.52
2022-10-25T14:44:29.522Z,16.42
2022-10-25T14:52:03.030Z,16.24
2022-10-25T14:57:07.188Z,16.46
2022-10-25T15:02:11.425Z,17.23
2022-10-25T15:07:15.553Z,17.66
2022-10-25T15:12:19.659Z,16.79
2022-10-25T15:17:23.831Z,16.42
2022-10-25T15:22:28.023Z,16.24
2022-10-25T15:27:32.173Z,16.10
2022-10-25T15:32:36.345Z,15.95
2022-10-25T15:37:40.499Z,15.78
2022-10-25T15:42:44.873Z,15.65
2022-10-25T15:47:48.790Z,15.54
2022-10-25T15:52:52.980Z,15.27
2022-10-25T15:57:57.136Z,15.06
2022-10-25T16:03:01.297Z,14.89
2022-10-25T16:08:05.451Z,14.81
2022-10-25T16:13:09.650Z,14.83
2022-10-25T16:18:13.858Z,14.84
2022-10-25T16:23:17.959Z,14.82
2022-10-25T16:28:20.227Z,14.73
2022-10-25T16:33:24.380Z,14.62
2022-10-25T16:38:26.620Z,14.51
2022-10-25T16:43:30.803Z,14.43
2022-10-25T16:48:34.926Z,14.36
2022-10-25T16:53:39.070Z,14.20
2022-10-25T16:58:43.263Z,14.00
2022-10-25T17:03:47.447Z,13.74
2022-10-25T17:08:51.575Z,13.56
2022-10-25T17:13:55.745Z,13.25
2022-10-25T17:18:59.923Z,12.89
2022-10-25T17:24:04.094Z,12.50
2022-10-25T17:29:08.256Z,12.26
2022-10-25T17:34:12.410Z,12.05
2022-10-25T17:39:16.612Z,11.81
2022-10-25T17:49:24.856Z,11.41
2022-10-25T17:54:29.014Z,11.31
2022-10-25T17:59:33.225Z,11.23
2022-10-25T18:04:53.280Z,11.33
2022-10-25T18:09:41.495Z,11.39
2022-10-25T18:14:45.697Z,11.33
2022-10-25T18:19:49.860Z,11.32
2022-10-25T18:24:53.981Z,11.23
2022-10-25T18:29:56.242Z,11.23
2022-10-25T18:35:00.501Z,11.12
2022-10-25T18:40:04.667Z,10.97
2022-10-25T18:45:08.814Z,10.89
2022-10-25T18:50:12.939Z,10.91
2022-10-25T19:00:21.301Z,10.72
2022-10-25T19:05:25.470Z,10.60
2022-10-25T19:10:29.590Z,10.58
2022-10-25T19:15:33.771Z,10.53
2022-10-25T19:20:37.914Z,10.41
2022-10-25T19:25:42.101Z,10.29
2022-10-25T19:30:46.252Z,10.11
2022-10-25T19:35:50.378Z,10.02
2022-10-25T19:40:54.585Z,9.83
2022-10-25T19:45:58.739Z,9.74
2022-10-25T19:51:02.854Z,9.74
2022-10-25T19:56:07.108Z,9.76
2022-10-25T20:01:11.314Z,9.74
2022-10-25T20:06:17.492Z,9.61
2022-10-25T20:11:19.518Z,9.50
2022-10-25T20:16:21.820Z,9.56
2022-10-25T20:21:25.957Z,9.56
2022-10-25T20:26:30.114Z,9.49
2022-10-25T20:31:34.304Z,9.42
2022-10-25T20:36:38.450Z,9.39
2022-10-25T20:41:42.629Z,9.31
2022-10-25T20:46:46.752Z,9.31
2022-10-25T20:51:50.919Z,9.25
2022-10-25T20:56:55.073Z,9.24
2022-10-25T21:01:59.466Z,9.34
2022-10-25T21:07:03.418Z,9.34
2022-10-25T21:12:07.551Z,9.35
2022-10-25T21:17:11.705Z,9.41
2022-10-25T21:22:15.923Z,9.35
2022-10-25T21:27:20.074Z,9.28
2022-10-25T21:32:24.199Z,9.32
2022-10-25T21:37:28.409Z,9.21
2022-10-25T21:42:32.547Z,9.17
2022-10-25T21:47:36.715Z,9.06
2022-10-25T21:52:40.871Z,9.05
2022-10-25T21:57:47.191Z,9.03
2022-10-25T22:02:47.325Z,9.09
2022-10-25T22:07:51.885Z,9.08
2022-10-25T22:12:53.719Z,9.06
2022-10-25T22:17:57.891Z,8.96
2022-10-25T22:23:02.064Z,8.83
2022-10-25T22:28:06.212Z,8.72
2022-10-25T22:33:10.373Z,8.65
2022-10-25T22:38:14.553Z,8.59
2022-10-25T22:43:18.681Z,8.55
2022-10-25T22:48:22.861Z,8.50
2022-10-25T22:53:27.205Z,8.52
2022-10-25T22:58:31.186Z,8.57
2022-10-25T23:03:35.457Z,8.54
2022-10-25T23:08:39.642Z,8.45
2022-10-25T23:13:43.630Z,8.43
2022-10-25T23:18:47.842Z,8.42
2022-10-25T23:23:51.980Z,8.55
2022-10-25T23:28:56.191Z,8.64
2022-10-25T23:34:00.336Z,8.72
2022-10-25T23:39:04.485Z,8.74
2022-10-25T23:44:08.649Z,8.80
2022-10-25T23:49:12.811Z,8.84
2022-10-25T23:54:16.970Z,8.88
2022-10-25T23:59:19.301Z,8.91
